createdAt,value
2023-06-02T00:00:21.605Z,101385.94
2023-06-02T00:02:48.559Z,101374.34
2023-06-02T00:05:15.519Z,101379.25
2023-06-02T00:07:42.330Z,101385.88
2023-06-02T00:10:09.903Z,101380.91
2023-06-02T00:12:38.083Z,101386.50
2023-06-02T00:15:05.761Z,101383.94
2023-06-02T00:17:32.633Z,101388.69
2023-06-02T00:20:00.600Z,101391.69
2023-06-02T00:22:27.344Z,101391.03
2023-06-02T00:24:54.160Z,101394.06
2023-06-02T00:27:20.950Z,101386.22
2023-06-02T00:29:49.078Z,101390.97
2023-06-02T00:32:15.825Z,101387.53
2023-06-02T00:34:42.641Z,101387.00
2023-06-02T00:37:09.417Z,101383.75
2023-06-02T00:39:36.152Z,101383.03
2023-06-02T00:42:03.873Z,101375.91
2023-06-02T00:44:35.056Z,101369.78
2023-06-02T00:47:03.103Z,101378.41
2023-06-02T00:49:29.881Z,101373.28
2023-06-02T00:51:57.925Z,101378.19
2023-06-02T00:54:26.171Z,101384.75
2023-06-02T00:56:52.809Z,101385.94
2023-06-02T00:59:20.799Z,101393.38
2023-06-02T01:01:47.693Z,101389.97
2023-06-02T01:04:16.147Z,101392.13
2023-06-02T01:06:43.427Z,101393.28
2023-06-02T01:09:12.376Z,101397.84
2023-06-02T01:11:39.105Z,101395.44
2023-06-02T01:14:05.961Z,101396.59
2023-06-02T01:16:32.697Z,101399.63
2023-06-02T01:18:59.972Z,101402.66
2023-06-02T01:21:32.156Z,101402.97
2023-06-02T01:24:00.211Z,101406.28
2023-06-02T01:26:27.940Z,101412.03
2023-06-02T01:28:54.932Z,101415.34
2023-06-02T01:31:26.582Z,101411.38
2023-06-02T01:34:03.397Z,101403.41
2023-06-02T01:36:33.847Z,101407.25
2023-06-02T01:39:03.122Z,101408.28
2023-06-02T01:41:32.286Z,101411.47
2023-06-02T01:44:00.168Z,101411.06
2023-06-02T01:46:27.526Z,101408.34
2023-06-02T01:48:54.344Z,101413.06
2023-06-02T01:51:21.496Z,101408.94
2023-06-02T01:53:48.372Z,101427.53
2023-06-02T01:56:16.438Z,101415.97
2023-06-02T01:58:43.099Z,101418.97
2023-06-02T02:01:09.837Z,101417.97
2023-06-02T02:03:36.704Z,101417.97
2023-06-02T02:06:03.985Z,101414.41
2023-06-02T02:08:30.877Z,101411.84
2023-06-02T02:10:57.553Z,101413.72
2023-06-02T02:13:25.572Z,101413.16
2023-06-02T02:15:52.256Z,101417.88
2023-06-02T02:18:18.938Z,101412.75
2023-06-02T02:20:45.557Z,101413.88
2023-06-02T02:23:12.232Z,101413.34
2023-06-02T02:25:38.937Z,101410.94
2023-06-02T02:28:05.660Z,101419.38
2023-06-02T02:30:33.739Z,101425.94
2023-06-02T02:33:00.412Z,101422.13
2023-06-02T02:35:27.113Z,101426.13
2023-06-02T02:37:53.957Z,101432.69
2023-06-02T02:40:20.700Z,101440.81
2023-06-02T02:42:47.392Z,101438.41
2023-06-02T02:45:14.461Z,101430.28
2023-06-02T02:47:42.552Z,101427.56
2023-06-02T02:50:10.349Z,101431.56
2023-06-02T02:52:37.191Z,101438.00
2023-06-02T02:55:04.823Z,101437.00
2023-06-02T02:57:31.495Z,101444.41
2023-06-02T02:59:58.314Z,101442.00
2023-06-02T03:02:25.041Z,101448.59
2023-06-02T03:04:53.250Z,101452.84
2023-06-02T03:07:20.102Z,101453.69
2023-06-02T03:09:46.905Z,101450.84
2023-06-02T03:12:13.616Z,101449.13
2023-06-02T03:14:40.303Z,101454.56
2023-06-02T03:17:08.001Z,101457.28
2023-06-02T03:19:35.028Z,101454.56
2023-06-02T03:22:03.165Z,101456.28
2023-06-02T03:24:30.020Z,101455.25
2023-06-02T03:26:57.374Z,101463.38
2023-06-02T03:29:24.185Z,101455.13
2023-06-02T03:31:52.064Z,101457.69
2023-06-02T03:34:18.819Z,101452.97
2023-06-02T03:36:45.501Z,101459.66
2023-06-02T03:39:13.551Z,101457.09
2023-06-02T03:41:40.279Z,101463.69
2023-06-02T03:44:07.223Z,101468.81
2023-06-02T03:46:34.597Z,101473.09
2023-06-02T03:49:02.070Z,101474.50
2023-06-02T03:51:28.737Z,101472.91
2023-06-02T03:53:55.483Z,101479.63
2023-06-02T03:56:23.732Z,101472.72
2023-06-02T03:58:50.667Z,101468.56
2023-06-02T04:01:17.923Z,101480.41
2023-06-02T04:03:44.891Z,101478.09
2023-06-02T04:06:12.974Z,101484.63
2023-06-02T04:08:40.090Z,101478.53
2023-06-02T04:11:07.604Z,101475.53
2023-06-02T04:13:35.663Z,101483.03
2023-06-02T04:16:02.949Z,101482.72
2023-06-02T04:18:31.395Z,101480.31
2023-06-02T04:20:58.217Z,101490.91
2023-06-02T04:23:24.896Z,101489.38
2023-06-02T04:25:51.561Z,101489.38
2023-06-02T04:28:18.366Z,101497.00
2023-06-02T04:30:47.156Z,101497.09
2023-06-02T04:33:13.980Z,101500.78
2023-06-02T04:35:40.672Z,101502.72
2023-06-02T04:38:07.459Z,101509.75
2023-06-02T04:40:34.210Z,101502.47
2023-06-02T04:43:01.089Z,101510.88
2023-06-02T04:45:27.773Z,101516.97
2023-06-02T04:47:55.938Z,101505.00
2023-06-02T04:50:22.706Z,101513.09
2023-06-02T04:52:49.373Z,101514.91
2023-06-02T04:55:16.078Z,101520.66
2023-06-02T04:57:42.988Z,101519.41
2023-06-02T05:00:11.055Z,101524.78
2023-06-02T05:02:37.793Z,101523.53
2023-06-02T05:05:07.368Z,101532.50
2023-06-02T05:07:34.109Z,101531.63
2023-06-02T05:10:00.805Z,101520.53
2023-06-02T05:12:27.517Z,101525.25
2023-06-02T05:14:54.287Z,101529.44
2023-06-02T05:17:25.144Z,101524.84
2023-06-02T05:19:52.066Z,101531.63
2023-06-02T05:22:20.240Z,101525.78
2023-06-02T05:24:46.945Z,101528.50
2023-06-02T05:27:13.668Z,101530.94
2023-06-02T05:29:40.674Z,101533.66
2023-06-02T05:32:08.199Z,101531.78
2023-06-02T05:34:34.935Z,101530.75
2023-06-02T05:37:02.346Z,101534.19
2023-06-02T05:39:30.863Z,101537.59
2023-06-02T05:41:57.781Z,101543.88
2023-06-02T05:44:24.491Z,101540.63
2023-06-02T05:46:51.225Z,101541.63
2023-06-02T05:49:17.917Z,101554.75
2023-06-02T05:51:44.689Z,101559.59
2023-06-02T05:54:11.421Z,101557.97
2023-06-02T05:56:39.503Z,101558.22
2023-06-02T05:59:06.779Z,101553.19
2023-06-02T06:01:33.471Z,101555.44
2023-06-02T06:04:00.312Z,101563.94
2023-06-02T06:06:27.189Z,101560.63
2023-06-02T06:08:54.423Z,101565.91
2023-06-02T06:11:21.244Z,101570.31
2023-06-02T06:13:49.435Z,101572.75
2023-06-02T06:16:16.168Z,101569.56
2023-06-02T06:18:42.976Z,101565.72
2023-06-02T06:21:10.130Z,101572.81
2023-06-02T06:23:36.902Z,101580.16
2023-06-02T06:26:03.844Z,101581.03
2023-06-02T06:28:30.772Z,101571.22
2023-06-02T06:30:58.835Z,101575.44
2023-06-02T06:33:25.463Z,101571.25
2023-06-02T06:35:52.141Z,101566.22
2023-06-02T06:38:18.780Z,101556.06
2023-06-02T06:40:45.456Z,101565.66
2023-06-02T06:43:23.767Z,101562.47
2023-06-02T06:45:51.807Z,101571.75
2023-06-02T06:48:20.018Z,101579.97
2023-06-02T06:50:48.239Z,101582.47
2023-06-02T06:53:14.941Z,101578.03
2023-06-02T06:55:41.756Z,101593.41
2023-06-02T06:58:08.402Z,101588.81
2023-06-02T07:00:35.212Z,101593.63
2023-06-02T07:03:02.026Z,101596.84
2023-06-02T07:05:30.344Z,101602.47
2023-06-02T07:07:57.680Z,101593.44
2023-06-02T07:10:24.518Z,101595.19
2023-06-02T07:12:51.257Z,101596.91
2023-06-02T07:15:18.142Z,101595.31
2023-06-02T07:17:44.919Z,101598.25
2023-06-02T07:20:13.621Z,101594.28
2023-06-02T07:22:41.663Z,101592.53
2023-06-02T07:25:09.269Z,101596.44
2023-06-02T07:27:36.052Z,101601.56
2023-06-02T07:30:03.122Z,101609.28
2023-06-02T07:32:29.879Z,101608.06
2023-06-02T07:34:56.655Z,101608.44
2023-06-02T07:37:23.314Z,101613.25
2023-06-02T07:39:51.582Z,101604.00
2023-06-02T07:42:19.299Z,101610.31
2023-06-02T07:44:46.018Z,101606.72
2023-06-02T07:47:12.860Z,101609.13
2023-06-02T07:49:39.993Z,101616.31
2023-06-02T07:52:07.000Z,101609.81
2023-06-02T07:54:33.868Z,101613.91
2023-06-02T07:57:02.074Z,101622.94
2023-06-02T07:59:28.797Z,101624.28
2023-06-02T08:01:55.687Z,101630.78
2023-06-02T08:04:22.521Z,101625.09
2023-06-02T08:06:49.279Z,101627.09
2023-06-02T08:09:16.258Z,101616.66
2023-06-02T08:11:42.938Z,101616.47
2023-06-02T08:14:11.091Z,101613.53
2023-06-02T08:16:56.303Z,101623.06
2023-06-02T08:19:24.573Z,101626.09
2023-06-02T08:21:51.447Z,101616.25
2023-06-02T08:24:18.199Z,101616.03
2023-06-02T08:26:44.854Z,101619.41
2023-06-02T08:29:13.080Z,101624.25
2023-06-02T08:31:40.101Z,101625.81
2023-06-02T08:34:07.493Z,101613.63
2023-06-02T08:36:34.610Z,101617.75
2023-06-02T08:39:01.910Z,101620.19
2023-06-02T08:41:29.246Z,101622.38
2023-06-02T08:43:55.958Z,101625.44
2023-06-02T08:46:24.178Z,101626.13
2023-06-02T08:48:53.841Z,101626.78
2023-06-02T08:51:22.286Z,101633.47
2023-06-02T08:53:49.560Z,101640.66
2023-06-02T08:56:16.939Z,101635.69
2023-06-02T08:58:45.817Z,101636.66
2023-06-02T09:01:12.842Z,101634.75
2023-06-02T09:03:46.752Z,101646.50
2023-06-02T09:06:21.269Z,101651.94
2023-06-02T09:08:55.812Z,101648.81
2023-06-02T09:11:22.566Z,101640.91
2023-06-02T09:13:49.702Z,101649.06
2023-06-02T09:16:16.465Z,101646.22
2023-06-02T09:18:57.588Z,101645.13
2023-06-02T09:21:25.308Z,101639.44
2023-06-02T09:24:04.009Z,101649.53
2023-06-02T09:26:38.738Z,101658.31
2023-06-02T09:29:09.351Z,101660.59
2023-06-02T09:31:47.062Z,101660.50
2023-06-02T09:34:16.668Z,101657.72
2023-06-02T09:36:43.869Z,101674.28
2023-06-02T09:39:10.734Z,101667.53
2023-06-02T09:41:38.634Z,101677.41
2023-06-02T09:44:12.307Z,101674.78
2023-06-02T09:46:40.766Z,101667.03
2023-06-02T09:49:07.677Z,101670.44
2023-06-02T09:51:36.039Z,101673.09
2023-06-02T09:54:03.175Z,101664.38
2023-06-02T09:56:30.761Z,101681.91
2023-06-02T09:58:57.802Z,101676.81
2023-06-02T10:01:24.567Z,101670.56
2023-06-02T10:03:51.264Z,101679.38
2023-06-02T10:06:31.260Z,101664.38
2023-06-02T10:09:13.364Z,101669.50
2023-06-02T10:12:01.271Z,101663.97
2023-06-02T10:14:50.654Z,101664.47
2023-06-02T10:17:26.175Z,101669.19
2023-06-02T10:20:17.258Z,101683.97
2023-06-02T10:22:56.328Z,101674.88
2023-06-02T10:25:35.575Z,101667.94
2023-06-02T10:28:04.183Z,101693.09
2023-06-02T10:30:31.033Z,101675.81
2023-06-02T10:32:57.886Z,101668.13
2023-06-02T10:35:57.458Z,101687.38
2023-06-02T10:38:30.183Z,101674.03
2023-06-02T10:41:00.809Z,101676.50
2023-06-02T10:43:27.676Z,101681.75
2023-06-02T10:46:14.438Z,101672.50
2023-06-02T10:48:41.941Z,101675.44
2023-06-02T10:51:09.707Z,101670.59
2023-06-02T10:54:15.953Z,101659.38
2023-06-02T10:56:46.305Z,101656.97
2023-06-02T10:59:32.958Z,101668.44
2023-06-02T11:01:59.792Z,101676.06
2023-06-02T11:04:28.449Z,101674.00
2023-06-02T11:07:18.291Z,101658.53
2023-06-02T11:09:46.226Z,101664.13
2023-06-02T11:12:14.758Z,101664.03
2023-06-02T11:15:15.864Z,101669.28
2023-06-02T11:17:43.105Z,101649.31
2023-06-02T11:20:10.339Z,101661.28
2023-06-02T11:22:37.675Z,101659.72
2023-06-02T11:25:05.109Z,101653.84
2023-06-02T11:27:38.624Z,101653.00
2023-06-02T11:30:08.072Z,101661.41
2023-06-02T11:32:35.317Z,101658.31
2023-06-02T11:35:03.246Z,101652.84
2023-06-02T11:37:30.044Z,101656.22
2023-06-02T11:39:57.350Z,101654.50
2023-06-02T11:42:42.278Z,101661.53
2023-06-02T11:45:20.221Z,101659.16
2023-06-02T11:47:47.740Z,101656.19
2023-06-02T11:50:18.115Z,101661.31
2023-06-02T11:52:45.225Z,101671.94
2023-06-02T11:55:12.143Z,101667.19
2023-06-02T11:57:39.016Z,101663.63
2023-06-02T12:00:11.958Z,101662.72
2023-06-02T12:02:40.110Z,101658.59
2023-06-02T12:05:11.281Z,101653.44
2023-06-02T12:07:40.652Z,101651.34
2023-06-02T12:10:08.924Z,101659.03
2023-06-02T12:12:35.909Z,101664.53
2023-06-02T12:15:17.344Z,101674.59
2023-06-02T12:17:44.139Z,101677.88
2023-06-02T12:20:11.148Z,101665.28
2023-06-02T12:22:52.399Z,101658.84
2023-06-02T12:25:19.882Z,101651.31
2023-06-02T12:27:46.645Z,101648.88
2023-06-02T12:30:16.225Z,101657.94
2023-06-02T12:32:43.000Z,101667.19
2023-06-02T12:35:10.038Z,101665.63
2023-06-02T12:37:36.961Z,101667.78
2023-06-02T12:40:04.028Z,101670.56
2023-06-02T12:42:30.737Z,101658.59
2023-06-02T12:44:57.471Z,101657.25
2023-06-02T12:47:25.449Z,101668.16
2023-06-02T12:49:52.208Z,101661.41
2023-06-02T12:52:18.942Z,101671.84
2023-06-02T12:54:45.885Z,101675.91
2023-06-02T12:57:12.688Z,101683.50
2023-06-02T12:59:39.517Z,101673.09
2023-06-02T13:02:06.600Z,101666.34
2023-06-02T13:04:34.947Z,101670.19
2023-06-02T13:07:01.789Z,101673.41
2023-06-02T13:09:28.792Z,101680.41
2023-06-02T13:11:55.518Z,101679.34
2023-06-02T13:14:22.213Z,101675.13
2023-06-02T13:16:48.888Z,101673.84
2023-06-02T13:19:15.645Z,101679.16
2023-06-02T13:21:43.716Z,101682.09
2023-06-02T13:24:10.484Z,101675.53
2023-06-02T13:26:37.375Z,101681.50
2023-06-02T13:29:04.917Z,101678.56
2023-06-02T13:31:31.853Z,101685.78
2023-06-02T13:33:58.700Z,101679.00
2023-06-02T13:36:25.367Z,101688.13
2023-06-02T13:38:53.490Z,101688.56
2023-06-02T13:41:20.281Z,101686.63
2023-06-02T13:43:46.983Z,101688.75
2023-06-02T13:46:13.756Z,101696.41
2023-06-02T13:48:40.459Z,101682.00
2023-06-02T13:51:08.711Z,101692.41
2023-06-02T13:53:35.342Z,101692.63
2023-06-02T13:56:03.695Z,101700.28
2023-06-02T13:58:30.680Z,101702.19
2023-06-02T14:00:57.485Z,101703.69
2023-06-02T14:03:24.315Z,101700.28
2023-06-02T14:05:51.205Z,101716.41
2023-06-02T14:08:18.056Z,101710.88
2023-06-02T14:10:44.755Z,101703.03
2023-06-02T14:13:13.066Z,101707.06
2023-06-02T14:15:39.897Z,101707.47
2023-06-02T14:18:06.670Z,101719.38
2023-06-02T14:20:34.793Z,101713.88
2023-06-02T14:23:01.468Z,101711.50
2023-06-02T14:25:28.216Z,101717.69
2023-06-02T14:27:55.132Z,101715.56
2023-06-02T14:30:25.138Z,101719.59
2023-06-02T14:32:51.912Z,101710.88
2023-06-02T14:35:19.252Z,101708.34
2023-06-02T14:37:45.901Z,101700.69
2023-06-02T14:40:13.133Z,101701.34
2023-06-02T14:42:40.123Z,101715.16
2023-06-02T14:45:08.224Z,101703.88
2023-06-02T14:47:36.537Z,101718.53
2023-06-02T14:50:03.597Z,101722.78
2023-06-02T14:52:30.381Z,101719.41
2023-06-02T14:54:57.010Z,101717.25
2023-06-02T14:57:24.439Z,101727.66
2023-06-02T14:59:51.383Z,101720.63
2023-06-02T15:02:18.346Z,101732.06
2023-06-02T15:04:46.515Z,101729.31
2023-06-02T15:07:13.294Z,101722.34
2023-06-02T15:09:40.105Z,101722.34
2023-06-02T15:12:08.026Z,101727.81
2023-06-02T15:14:34.725Z,101728.00
2023-06-02T15:17:01.601Z,101728.63
2023-06-02T15:19:28.385Z,101721.84
2023-06-02T15:21:56.785Z,101718.47
2023-06-02T15:24:25.957Z,101726.97
2023-06-02T15:26:53.032Z,101721.84
2023-06-02T15:29:19.895Z,101727.78
2023-06-02T15:31:47.185Z,101727.78
2023-06-02T15:34:15.150Z,101730.16
2023-06-02T15:36:42.029Z,101732.47
2023-06-02T15:39:10.168Z,101729.94
2023-06-02T15:41:37.164Z,101723.53
2023-06-02T15:44:04.002Z,101739.41
2023-06-02T15:46:30.776Z,101726.91
2023-06-02T15:48:57.612Z,101735.78
2023-06-02T15:51:25.088Z,101739.41
2023-06-02T15:53:51.865Z,101734.06
2023-06-02T15:56:20.282Z,101739.13
2023-06-02T15:58:47.110Z,101727.88
2023-06-02T16:01:13.976Z,101740.59
2023-06-02T16:03:40.908Z,101744.56
2023-06-02T16:06:07.910Z,101743.19
2023-06-02T16:08:34.724Z,101729.41
2023-06-02T16:11:01.383Z,101733.19
2023-06-02T16:13:29.486Z,101740.53
2023-06-02T16:15:56.167Z,101740.94
2023-06-02T16:18:23.005Z,101740.09
2023-06-02T16:20:50.076Z,101754.47
2023-06-02T16:23:16.764Z,101745.25
2023-06-02T16:25:43.659Z,101738.53
2023-06-02T16:28:10.422Z,101746.38
2023-06-02T16:30:38.462Z,101742.06
2023-06-02T16:33:05.224Z,101745.59
2023-06-02T16:35:32.001Z,101754.88
2023-06-02T16:37:58.658Z,101750.56
2023-06-02T16:40:25.716Z,101764.25
2023-06-02T16:42:52.447Z,101764.84
2023-06-02T16:45:19.110Z,101761.06
2023-06-02T16:47:47.179Z,101764.63
2023-06-02T16:50:13.970Z,101768.47
2023-06-02T16:52:40.738Z,101778.41
2023-06-02T16:55:08.103Z,101780.50
2023-06-02T16:57:34.750Z,101782.38
2023-06-02T17:00:03.150Z,101784.72
2023-06-02T17:02:30.211Z,101784.03
2023-06-02T17:04:58.280Z,101790.34
2023-06-02T17:07:25.027Z,101789.41
2023-06-02T17:09:51.762Z,101807.09
2023-06-02T17:12:18.537Z,101801.72
2023-06-02T17:14:45.395Z,101806.13
2023-06-02T17:17:12.075Z,101798.81
2023-06-02T17:19:38.876Z,101803.00
2023-06-02T17:22:07.367Z,101800.38
2023-06-02T17:24:34.636Z,101798.66
2023-06-02T17:27:01.956Z,101807.88
2023-06-02T17:29:28.933Z,101798.97
2023-06-02T17:31:56.077Z,101805.78
2023-06-02T17:34:23.607Z,101811.69
2023-06-02T17:36:50.436Z,101809.50
2023-06-02T17:39:18.534Z,101811.59
2023-06-02T17:41:45.225Z,101812.06
2023-06-02T17:44:11.850Z,101807.03
2023-06-02T17:46:38.640Z,101815.16
2023-06-02T17:49:05.294Z,101821.78
2023-06-02T17:51:32.055Z,101818.94
2023-06-02T17:53:58.772Z,101826.41
2023-06-02T17:56:26.860Z,101828.69
2023-06-02T17:58:53.572Z,101816.66
2023-06-02T18:01:20.316Z,101827.19
2023-06-02T18:03:52.616Z,101818.72
2023-06-02T18:06:19.802Z,101832.13
2023-06-02T18:08:47.313Z,101825.50
2023-06-02T18:11:14.934Z,101831.53
2023-06-02T18:13:44.553Z,101828.84
2023-06-02T18:16:13.010Z,101849.78
2023-06-02T18:18:40.103Z,101851.03
2023-06-02T18:21:10.326Z,101844.72
2023-06-02T18:23:37.484Z,101844.94
2023-06-02T18:26:04.686Z,101848.91
2023-06-02T18:28:31.921Z,101856.50
2023-06-02T18:31:01.186Z,101858.03
2023-06-02T18:33:28.324Z,101864.06
2023-06-02T18:35:55.617Z,101859.63
2023-06-02T18:38:22.567Z,101862.38
2023-06-02T18:40:50.066Z,101869.59
2023-06-02T18:43:17.831Z,101864.97
2023-06-02T18:45:45.368Z,101866.88
2023-06-02T18:48:14.013Z,101871.31
2023-06-02T18:50:41.211Z,101878.81
2023-06-02T18:53:10.978Z,101878.47
2023-06-02T18:55:38.213Z,101884.66
2023-06-02T18:58:05.285Z,101886.34
2023-06-02T19:00:32.626Z,101890.94
2023-06-02T19:02:59.622Z,101897.59
2023-06-02T19:05:28.851Z,101901.00
2023-06-02T19:07:56.159Z,101901.84
2023-06-02T19:10:23.567Z,101910.03
2023-06-02T19:12:50.819Z,101898.88
2023-06-02T19:15:18.236Z,101906.22
2023-06-02T19:17:45.797Z,101901.25
2023-06-02T19:20:14.517Z,101905.63
2023-06-02T19:22:43.463Z,101919.25
2023-06-02T19:25:12.378Z,101915.78
2023-06-02T19:27:41.568Z,101921.22
2023-06-02T19:30:09.716Z,101919.13
2023-06-02T19:32:37.025Z,101929.84
2023-06-02T19:35:04.715Z,101929.63
2023-06-02T19:37:32.029Z,101931.97
2023-06-02T19:40:00.906Z,101941.84
2023-06-02T19:42:28.064Z,101946.03
2023-06-02T19:44:55.057Z,101946.84
2023-06-02T19:47:22.233Z,101947.31
2023-06-02T19:49:49.581Z,101948.13
2023-06-02T19:52:16.828Z,101947.06
2023-06-02T19:54:43.985Z,101953.81
2023-06-02T19:57:12.820Z,101952.75
2023-06-02T19:59:40.323Z,101948.19
2023-06-02T20:02:07.867Z,101955.28
2023-06-02T20:04:36.171Z,101950.13
2023-06-02T20:07:03.965Z,101952.50
2023-06-02T20:09:30.701Z,101956.53
2023-06-02T20:11:57.409Z,101952.56
2023-06-02T20:14:28.097Z,101951.44
2023-06-02T20:16:55.967Z,101957.38
2023-06-02T20:19:22.780Z,101956.13
2023-06-02T20:21:49.474Z,101966.47
2023-06-02T20:24:16.335Z,101959.91
2023-06-02T20:26:43.281Z,101961.41
2023-06-02T20:29:09.982Z,101960.81
2023-06-02T20:31:38.189Z,101969.63
2023-06-02T20:34:04.976Z,101972.63
2023-06-02T20:36:31.634Z,101969.53
2023-06-02T20:38:58.216Z,101973.56
2023-06-02T20:41:24.919Z,101977.88
2023-06-02T20:43:51.631Z,101979.19
2023-06-02T20:46:18.361Z,101987.94
2023-06-02T20:48:46.488Z,101984.81
2023-06-02T20:51:13.157Z,101980.94
2023-06-02T20:53:39.871Z,101988.66
2023-06-02T20:56:06.591Z,101989.13
2023-06-02T20:58:33.504Z,101996.91
2023-06-02T21:01:00.205Z,102002.06
2023-06-02T21:03:27.331Z,101999.06
2023-06-02T21:05:55.446Z,101994.94
2023-06-02T21:08:22.136Z,102002.09
2023-06-02T21:10:48.748Z,101998.94
2023-06-02T21:13:15.441Z,101996.66
2023-06-02T21:15:42.129Z,102000.50
2023-06-02T21:18:08.944Z,102003.66
2023-06-02T21:20:35.797Z,101999.81
2023-06-02T21:23:03.864Z,102005.69
2023-06-02T21:25:30.501Z,102010.69
2023-06-02T21:27:57.196Z,102001.09
2023-06-02T21:30:23.834Z,102005.97
2023-06-02T21:32:50.548Z,102013.56
2023-06-02T21:35:17.254Z,102016.69
2023-06-02T21:37:44.008Z,102015.28
2023-06-02T21:40:12.521Z,102014.69
2023-06-02T21:42:39.180Z,102007.53
2023-06-02T21:45:07.038Z,102015.81
2023-06-02T21:47:33.767Z,102009.81
2023-06-02T21:50:00.606Z,102009.25
2023-06-02T21:52:27.310Z,102007.66
2023-06-02T21:54:53.980Z,102011.53
2023-06-02T21:57:22.256Z,102012.69
2023-06-02T21:59:48.912Z,102017.38
2023-06-02T22:02:15.614Z,102014.94
2023-06-02T22:04:42.475Z,102001.75
2023-06-02T22:07:09.486Z,102011.00
2023-06-02T22:09:36.463Z,102012.28
2023-06-02T22:12:03.531Z,102000.84
2023-06-02T22:14:31.669Z,102004.72
2023-06-02T22:16:58.369Z,102003.28
2023-06-02T22:19:25.375Z,102001.84
2023-06-02T22:21:56.077Z,101994.94
2023-06-02T22:24:27.689Z,102002.50
2023-06-02T22:26:56.216Z,101998.34
2023-06-02T22:29:23.121Z,101991.47
2023-06-02T22:31:51.277Z,102006.22
2023-06-02T22:34:18.324Z,102000.31
2023-06-02T22:36:45.132Z,101998.72
2023-06-02T22:39:11.980Z,102002.59
2023-06-02T22:41:38.658Z,102002.13
2023-06-02T22:44:05.415Z,102007.09
2023-06-02T22:46:32.161Z,102004.94
2023-06-02T22:49:00.388Z,102011.78
2023-06-02T22:51:27.644Z,102010.59
2023-06-02T22:53:54.281Z,102022.84
2023-06-02T22:56:20.982Z,102023.25
2023-06-02T22:58:47.696Z,102021.78
2023-06-02T23:01:14.474Z,102016.50
2023-06-02T23:03:41.166Z,102021.31
2023-06-02T23:06:09.357Z,102026.88
2023-06-02T23:08:36.378Z,102031.47
2023-06-02T23:11:03.281Z,102031.59
2023-06-02T23:13:30.366Z,102031.88
2023-06-02T23:15:57.042Z,102035.81
2023-06-02T23:18:23.668Z,102040.78
2023-06-02T23:20:50.370Z,102042.03
2023-06-02T23:23:18.639Z,102047.97
2023-06-02T23:25:45.364Z,102050.22
2023-06-02T23:28:12.372Z,102048.88
2023-06-02T23:30:39.133Z,102044.69
2023-06-02T23:33:06.153Z,102046.09
2023-06-02T23:35:33.333Z,102038.34
2023-06-02T23:38:00.228Z,102048.69
2023-06-02T23:40:28.317Z,102047.94
2023-06-02T23:43:01.900Z,102050.06
2023-06-02T23:45:28.602Z,102042.69
2023-06-02T23:47:55.492Z,102045.19
2023-06-02T23:50:22.232Z,102042.00
2023-06-02T23:52:48.885Z,102050.66
2023-06-02T23:55:15.544Z,102046.31
2023-06-02T23:57:43.583Z,102046.72
